Time;durP1;ratioP1;P1;durP2;ratioP2;P2;SDS_P1;SDS_P2;PMS_P1;PMS_P2;Temp;Humidity;BMP_temperature;BMP_pressure;BME280_temperature;BME280_humidity;BME280_pressure;Samples;Min_cycle;Max_cycle;Signal;HPM_P1;HPM_P2
2021/04/05 00:03:33;;;;;;;28.1;21.2;;;;;;;5.4;65.2;101050.0;;;;
2021/04/05 00:11:34;;;;;;;27.5;20.1;;;;;;;5.3;65.9;101030.0;;;;
2021/04/05 00:19:33;;;;;;;27.5;20.1;;;;;;;5.4;65.5;101010.0;;;;
2021/04/05 00:23:33;;;;;;;27.5;20.1;;;;;;;5.3;65.8;101000.0;;;;
2021/04/05 00:25:33;;;;;;;27.5;20.1;;;;;;;5.4;65.9;101000.0;;;;
2021/04/05 00:29:33;;;;;;;27.3;19.6;;;;;;;5.5;65.5;100990.0;;;;
2021/04/05 00:31:33;;;;;;;27.3;19.6;;;;;;;5.4;65.8;100990.0;;;;
2021/04/05 00:37:33;;;;;;;27.3;19.6;;;;;;;5.3;66.2;100970.0;;;;
2021/04/05 00:39:33;;;;;;;27.3;19.6;;;;;;;5.4;65.8;100960.0;;;;
2021/04/05 00:41:34;;;;;;;27.3;19.6;;;;;;;5.5;65.4;100960.0;;;;
2021/04/05 00:45:34;;;;;;;27.3;19.6;;;;;;;5.4;65.5;100960.0;;;;
2021/04/05 00:47:34;;;;;;;27.3;19.6;;;;;;;5.5;65.7;100960.0;;;;
2021/04/05 00:49:33;;;;;;;24.6;19.2;;;;;;;5.6;65.4;100950.0;;;;
2021/04/05 00:51:33;;;;;;;24.6;19.2;;;;;;;5.5;65.5;100950.0;;;;
2021/04/05 00:53:37;;;;;;;24.6;19.2;;;;;;;5.6;65.4;100940.0;;;;
2021/04/05 00:55:34;;;;;;;24.6;19.2;;;;;;;5.5;65.5;100940.0;;;;
2021/04/05 00:57:33;;;;;;;24.6;19.2;;;;;;;5.6;65.1;100940.0;;;;
2021/04/05 00:59:33;;;;;;;24.6;19.2;;;;;;;5.7;64.6;100930.0;;;;
2021/04/05 01:03:39;;;;;;;24.6;19.2;;;;;;;5.6;65.6;100920.0;;;;
2021/04/05 01:05:33;;;;;;;24.6;19.2;;;;;;;5.4;66.0;100920.0;;;;
2021/04/05 01:07:33;;;;;;;24.6;19.2;;;;;;;5.5;65.6;100920.0;;;;
2021/04/05 01:13:33;;;;;;;26.9;18.1;;;;;;;5.6;65.4;100900.0;;;;
2021/04/05 01:15:34;;;;;;;26.9;18.1;;;;;;;5.5;65.7;100890.0;;;;
2021/04/05 01:23:33;;;;;;;26.9;18.1;;;;;;;5.6;65.2;100880.0;;;;
2021/04/05 01:25:33;;;;;;;26.9;18.1;;;;;;;5.4;65.6;100890.0;;;;
2021/04/05 01:29:35;;;;;;;28.0;18.7;;;;;;;5.5;65.9;100870.0;;;;
2021/04/05 01:33:35;;;;;;;28.0;18.7;;;;;;;5.3;66.5;100870.0;;;;
2021/04/05 01:39:34;;;;;;;28.0;18.7;;;;;;;5.4;66.2;100860.0;;;;
2021/04/05 01:43:34;;;;;;;28.0;18.7;;;;;;;5.6;65.5;100860.0;;;;
2021/04/05 01:45:33;;;;;;;28.0;18.7;;;;;;;5.4;65.8;100860.0;;;;
2021/04/05 01:51:33;;;;;;;26.5;18.5;;;;;;;5.3;66.5;100840.0;;;;
2021/04/05 01:53:34;;;;;;;26.5;18.5;;;;;;;5.4;66.1;100840.0;;;;
2021/04/05 01:57:33;;;;;;;26.5;18.5;;;;;;;5.3;66.3;100810.0;;;;
2021/04/05 02:05:36;;;;;;;26.5;18.5;;;;;;;5.4;66.1;100800.0;;;;
2021/04/05 02:07:35;;;;;;;26.5;18.5;;;;;;;5.3;66.6;100800.0;;;;
2021/04/05 02:09:33;;;;;;;26.2;18.7;;;;;;;5.4;66.5;100800.0;;;;
2021/04/05 02:15:34;;;;;;;26.2;18.7;;;;;;;5.3;67.0;100800.0;;;;
2021/04/05 02:19:33;;;;;;;26.2;18.7;;;;;;;5.5;66.4;100800.0;;;;
2021/04/05 02:21:33;;;;;;;26.2;18.7;;;;;;;5.6;66.3;100790.0;;;;
2021/04/05 02:23:33;;;;;;;26.2;18.7;;;;;;;5.5;66.1;100780.0;;;;
2021/04/05 02:25:34;;;;;;;26.2;18.7;;;;;;;5.6;66.3;100770.0;;;;
2021/04/05 02:29:33;;;;;;;26.9;18.6;;;;;;;5.5;66.7;100770.0;;;;
2021/04/05 02:31:35;;;;;;;26.9;18.6;;;;;;;5.6;66.6;100770.0;;;;
2021/04/05 02:33:36;;;;;;;26.9;18.6;;;;;;;5.5;67.4;100770.0;;;;
2021/04/05 02:35:33;;;;;;;26.9;18.6;;;;;;;5.6;67.2;100760.0;;;;
2021/04/05 02:37:33;;;;;;;26.9;18.6;;;;;;;5.7;66.4;100760.0;;;;
2021/04/05 02:39:33;;;;;;;26.9;18.6;;;;;;;5.6;67.3;100760.0;;;;
2021/04/05 02:45:33;;;;;;;26.9;18.6;;;;;;;5.7;67.2;100750.0;;;;
2021/04/05 02:49:33;;;;;;;27.7;18.0;;;;;;;5.6;67.5;100740.0;;;;
2021/04/05 02:51:33;;;;;;;27.7;18.0;;;;;;;5.7;67.3;100730.0;;;;
2021/04/05 02:53:34;;;;;;;27.7;18.0;;;;;;;5.8;66.9;100730.0;;;;
2021/04/05 02:57:34;;;;;;;27.7;18.0;;;;;;;5.7;67.0;100720.0;;;;
2021/04/05 03:01:34;;;;;;;27.7;18.0;;;;;;;5.6;67.7;100720.0;;;;
2021/04/05 03:03:34;;;;;;;27.7;18.0;;;;;;;5.7;67.7;100710.0;;;;
2021/04/05 03:11:35;;;;;;;30.3;18.4;;;;;;;5.6;67.6;100700.0;;;;
2021/04/05 03:19:33;;;;;;;30.3;18.4;;;;;;;5.5;68.5;100670.0;;;;
2021/04/05 03:23:33;;;;;;;30.3;18.4;;;;;;;5.6;68.4;100670.0;;;;
2021/04/05 03:25:33;;;;;;;30.3;18.4;;;;;;;5.5;69.1;100670.0;;;;
2021/04/05 03:29:37;;;;;;;31.1;19.1;;;;;;;5.7;67.8;100660.0;;;;
2021/04/05 03:31:35;;;;;;;31.1;19.1;;;;;;;5.6;68.0;100650.0;;;;
2021/04/05 03:35:37;;;;;;;31.1;19.1;;;;;;;5.5;68.8;100640.0;;;;
2021/04/05 03:37:35;;;;;;;31.1;19.1;;;;;;;5.4;69.4;100640.0;;;;
2021/04/05 03:41:39;;;;;;;31.1;19.1;;;;;;;5.6;69.4;100630.0;;;;
2021/04/05 03:49:36;;;;;;;31.9;20.1;;;;;;;5.7;69.5;100620.0;;;;
2021/04/05 03:51:37;;;;;;;31.9;20.1;;;;;;;5.8;69.2;100610.0;;;;
2021/04/05 03:53:40;;;;;;;31.9;20.1;;;;;;;5.7;69.6;100610.0;;;;
2021/04/05 04:01:40;;;;;;;31.9;20.1;;;;;;;5.6;70.7;100590.0;;;;
2021/04/05 04:03:44;;;;;;;31.9;20.1;;;;;;;5.7;69.6;100590.0;;;;
2021/04/05 04:05:37;;;;;;;31.9;20.1;;;;;;;5.8;69.5;100580.0;;;;
2021/04/05 04:07:37;;;;;;;31.9;20.1;;;;;;;5.9;70.1;100570.0;;;;
2021/04/05 04:23:34;;;;;;;31.4;19.5;;;;;;;6.1;69.8;100550.0;;;;
2021/04/05 04:27:33;;;;;;;31.4;19.5;;;;;;;5.9;70.4;100550.0;;;;
2021/04/05 04:29:33;;;;;;;30.3;20.1;;;;;;;6.0;69.8;100550.0;;;;
2021/04/05 04:35:35;;;;;;;30.3;20.1;;;;;;;6.1;69.9;100550.0;;;;
2021/04/05 04:37:33;;;;;;;30.3;20.1;;;;;;;6.2;70.0;100540.0;;;;
2021/04/05 04:39:35;;;;;;;30.3;20.1;;;;;;;6.1;70.3;100540.0;;;;
2021/04/05 04:43:33;;;;;;;30.3;20.1;;;;;;;6.0;70.4;100530.0;;;;
2021/04/05 04:45:34;;;;;;;30.3;20.1;;;;;;;6.3;70.3;100530.0;;;;
2021/04/05 04:47:33;;;;;;;30.3;20.1;;;;;;;6.1;71.0;100530.0;;;;
2021/04/05 04:49:33;;;;;;;38.6;22.6;;;;;;;6.2;71.3;100520.0;;;;
2021/04/05 04:51:34;;;;;;;38.6;22.6;;;;;;;6.3;70.4;100520.0;;;;
2021/04/05 04:57:33;;;;;;;38.6;22.6;;;;;;;6.2;71.3;100500.0;;;;
2021/04/05 04:59:33;;;;;;;38.6;22.6;;;;;;;6.4;70.9;100510.0;;;;
2021/04/05 05:05:35;;;;;;;38.6;22.6;;;;;;;6.5;71.3;100500.0;;;;
2021/04/05 05:07:34;;;;;;;38.6;22.6;;;;;;;6.3;70.8;100490.0;;;;
2021/04/05 05:09:33;;;;;;;36.8;22.8;;;;;;;6.5;70.6;100490.0;;;;
2021/04/05 05:11:34;;;;;;;36.8;22.8;;;;;;;6.6;70.0;100480.0;;;;
2021/04/05 05:13:33;;;;;;;36.8;22.8;;;;;;;6.4;70.6;100480.0;;;;
2021/04/05 05:15:35;;;;;;;36.8;22.8;;;;;;;6.5;70.6;100470.0;;;;
2021/04/05 05:23:36;;;;;;;36.8;22.8;;;;;;;6.6;70.1;100470.0;;;;
2021/04/05 05:27:37;;;;;;;36.8;22.8;;;;;;;6.5;71.4;100460.0;;;;
2021/04/05 05:33:39;;;;;;;34.1;23.2;;;;;;;6.6;71.5;100450.0;;;;
2021/04/05 05:35:34;;;;;;;34.1;23.2;;;;;;;6.5;71.5;100460.0;;;;
2021/04/05 05:37:33;;;;;;;34.1;23.2;;;;;;;6.6;71.4;100460.0;;;;
2021/04/05 05:39:33;;;;;;;34.1;23.2;;;;;;;6.5;71.2;100450.0;;;;
2021/04/05 05:41:51;;;;;;;34.1;23.2;;;;;;;6.4;71.8;100450.0;;;;
2021/04/05 05:43:38;;;;;;;34.1;23.2;;;;;;;6.6;71.5;100450.0;;;;
2021/04/05 05:47:39;;;;;;;34.1;23.2;;;;;;;6.7;71.1;100440.0;;;;
2021/04/05 05:49:36;;;;;;;36.0;21.8;;;;;;;6.6;71.6;100430.0;;;;
2021/04/05 05:51:46;;;;;;;36.0;21.8;;;;;;;6.7;71.6;100440.0;;;;
2021/04/05 05:57:42;;;;;;;36.0;21.8;;;;;;;6.6;71.4;100430.0;;;;
2021/04/05 05:59:40;;;;;;;36.0;21.8;;;;;;;6.7;70.8;100430.0;;;;
2021/04/05 06:01:43;;;;;;;36.0;21.8;;;;;;;6.6;71.3;100420.0;;;;
2021/04/05 06:03:45;;;;;;;36.0;21.8;;;;;;;6.8;71.2;100420.0;;;;
2021/04/05 06:05:42;;;;;;;36.0;21.8;;;;;;;6.9;71.3;100410.0;;;;
2021/04/05 06:07:38;;;;;;;36.0;21.8;;;;;;;6.8;70.5;100410.0;;;;
2021/04/05 06:09:43;;;;;;;29.9;20.4;;;;;;;6.9;71.1;100410.0;;;;
2021/04/05 06:11:45;;;;;;;29.9;20.4;;;;;;;6.8;71.7;100410.0;;;;
2021/04/05 06:13:44;;;;;;;29.9;20.4;;;;;;;6.7;71.8;100410.0;;;;
2021/04/05 06:15:47;;;;;;;29.9;20.4;;;;;;;6.8;71.2;100420.0;;;;
2021/04/05 06:21:40;;;;;;;29.9;20.4;;;;;;;6.9;73.2;100510.0;;;;
2021/04/05 06:23:38;;;;;;;29.9;20.4;;;;;;;6.6;71.2;100510.0;;;;
2021/04/05 06:27:41;;;;;;;6.9;5.1;;;;;;;6.5;70.4;100520.0;;;;
2021/04/05 06:29:46;;;;;;;6.9;5.1;;;;;;;6.3;70.3;100520.0;;;;
2021/04/05 06:31:44;;;;;;;6.9;5.1;;;;;;;6.2;71.0;100520.0;;;;
2021/04/05 06:35:53;;;;;;;6.9;5.1;;;;;;;6.1;70.8;100520.0;;;;
2021/04/05 06:37:38;;;;;;;6.9;5.1;;;;;;;6.0;71.5;100520.0;;;;
2021/04/05 06:39:39;;;;;;;6.9;5.1;;;;;;;5.9;71.3;100520.0;;;;
2021/04/05 06:41:48;;;;;;;6.9;5.1;;;;;;;5.8;71.3;100520.0;;;;
2021/04/05 06:43:44;;;;;;;6.9;5.1;;;;;;;5.9;72.4;100530.0;;;;
2021/04/05 06:45:51;;;;;;;6.9;5.1;;;;;;;5.8;72.0;100520.0;;;;
2021/04/05 06:47:53;;;;;;;7.2;3.5;;;;;;;5.6;72.7;100530.0;;;;
2021/04/05 06:55:40;;;;;;;7.2;3.5;;;;;;;5.7;72.1;100520.0;;;;
2021/04/05 06:57:42;;;;;;;7.2;3.5;;;;;;;5.8;72.4;100520.0;;;;
2021/04/05 06:59:40;;;;;;;7.2;3.5;;;;;;;5.7;72.2;100520.0;;;;
2021/04/05 07:01:46;;;;;;;7.2;3.5;;;;;;;5.8;72.3;100530.0;;;;
2021/04/05 07:03:45;;;;;;;7.2;3.5;;;;;;;5.7;72.3;100530.0;;;;
2021/04/05 07:07:39;;;;;;;7.5;4.0;;;;;;;5.9;71.3;100530.0;;;;
2021/04/05 07:13:49;;;;;;;7.5;4.0;;;;;;;6.0;71.2;100530.0;;;;
2021/04/05 07:17:49;;;;;;;7.5;4.0;;;;;;;5.9;71.9;100540.0;;;;
2021/04/05 07:19:46;;;;;;;7.5;4.0;;;;;;;5.7;72.5;100550.0;;;;
2021/04/05 07:21:42;;;;;;;7.5;4.0;;;;;;;5.4;73.2;100550.0;;;;
2021/04/05 07:25:44;;;;;;;7.5;4.0;;;;;;;5.6;72.8;100550.0;;;;
2021/04/05 07:29:43;;;;;;;6.7;4.3;;;;;;;5.5;72.7;100550.0;;;;
2021/04/05 07:31:39;;;;;;;6.7;4.3;;;;;;;5.6;73.0;100550.0;;;;
2021/04/05 07:33:36;;;;;;;6.7;4.3;;;;;;;5.7;73.2;100570.0;;;;
2021/04/05 07:35:42;;;;;;;6.7;4.3;;;;;;;5.6;73.3;100570.0;;;;
2021/04/05 07:41:41;;;;;;;6.7;4.3;;;;;;;5.3;73.5;100570.0;;;;
2021/04/05 07:43:53;;;;;;;6.7;4.3;;;;;;;5.2;74.0;100590.0;;;;
2021/04/05 07:45:39;;;;;;;6.7;4.3;;;;;;;5.4;73.8;100600.0;;;;
2021/04/05 07:47:37;;;;;;;6.1;3.6;;;;;;;5.3;73.6;100620.0;;;;
2021/04/05 07:49:41;;;;;;;6.1;3.6;;;;;;;5.1;73.8;100620.0;;;;
2021/04/05 07:55:34;;;;;;;6.1;3.6;;;;;;;5.2;73.0;100650.0;;;;
2021/04/05 07:57:47;;;;;;;6.1;3.6;;;;;;;5.0;73.0;100650.0;;;;
2021/04/05 07:59:44;;;;;;;6.1;3.6;;;;;;;4.9;73.1;100650.0;;;;
2021/04/05 08:01:43;;;;;;;6.1;3.6;;;;;;;4.8;73.0;100660.0;;;;
2021/04/05 08:03:45;;;;;;;6.1;3.6;;;;;;;4.7;72.6;100670.0;;;;
2021/04/05 08:05:43;;;;;;;6.1;3.6;;;;;;;4.6;72.4;100670.0;;;;
2021/04/05 08:07:43;;;;;;;7.0;3.5;;;;;;;4.8;71.4;100670.0;;;;
2021/04/05 08:09:40;;;;;;;7.0;3.5;;;;;;;4.7;71.3;100680.0;;;;
2021/04/05 08:11:47;;;;;;;7.0;3.5;;;;;;;4.6;71.7;100680.0;;;;
2021/04/05 08:19:44;;;;;;;7.0;3.5;;;;;;;4.5;71.2;100700.0;;;;
2021/04/05 08:21:38;;;;;;;7.0;3.5;;;;;;;4.6;71.3;100710.0;;;;
2021/04/05 08:23:43;;;;;;;7.0;3.5;;;;;;;4.7;71.0;100720.0;;;;
2021/04/05 08:27:43;;;;;;;17.2;5.0;;;;;;;4.8;71.2;100740.0;;;;
2021/04/05 08:29:40;;;;;;;17.2;5.0;;;;;;;4.7;71.2;100750.0;;;;
2021/04/05 08:31:46;;;;;;;17.2;5.0;;;;;;;4.9;70.8;100750.0;;;;
2021/04/05 08:33:43;;;;;;;17.2;5.0;;;;;;;4.8;71.3;100750.0;;;;
2021/04/05 08:37:44;;;;;;;17.2;5.0;;;;;;;4.7;70.9;100760.0;;;;
2021/04/05 08:39:41;;;;;;;17.2;5.0;;;;;;;4.4;70.7;100770.0;;;;
2021/04/05 08:41:43;;;;;;;17.2;5.0;;;;;;;4.3;69.9;100760.0;;;;
2021/04/05 08:43:40;;;;;;;17.2;5.0;;;;;;;4.6;70.9;100770.0;;;;
2021/04/05 08:45:38;;;;;;;17.2;5.0;;;;;;;4.4;69.5;100760.0;;;;
2021/04/05 08:47:38;;;;;;;11.7;5.3;;;;;;;4.6;69.7;100770.0;;;;
2021/04/05 08:49:36;;;;;;;11.7;5.3;;;;;;;4.5;70.0;100760.0;;;;
2021/04/05 08:51:36;;;;;;;11.7;5.3;;;;;;;4.4;69.5;100760.0;;;;
2021/04/05 08:53:38;;;;;;;11.7;5.3;;;;;;;4.5;70.2;100760.0;;;;
2021/04/05 09:07:20;;;;;;;12.5;5.0;;;;;;;5.1;69.1;100770.0;;;;
2021/04/05 09:09:15;;;;;;;12.5;5.0;;;;;;;5.2;68.3;100780.0;;;;
2021/04/05 09:11:14;;;;;;;12.5;5.0;;;;;;;5.1;68.2;100780.0;;;;
2021/04/05 09:13:18;;;;;;;12.5;5.0;;;;;;;4.9;68.9;100780.0;;;;
2021/04/05 09:15:34;;;;;;;12.5;5.0;;;;;;;4.8;68.4;100770.0;;;;
2021/04/05 09:19:30;;;;;;;12.5;5.0;;;;;;;4.9;68.6;100790.0;;;;
2021/04/05 09:21:25;;;;;;;12.5;5.0;;;;;;;5.2;69.1;100780.0;;;;
2021/04/05 09:23:33;;;;;;;12.5;5.0;;;;;;;5.1;68.9;100790.0;;;;
2021/04/05 09:25:25;;;;;;;12.5;5.0;;;;;;;5.4;68.2;100790.0;;;;
2021/04/05 09:29:25;;;;;;;7.1;4.0;;;;;;;5.3;67.2;100790.0;;;;
2021/04/05 09:33:29;;;;;;;7.1;4.0;;;;;;;5.4;67.0;100800.0;;;;
2021/04/05 09:35:27;;;;;;;7.1;4.0;;;;;;;5.2;66.5;100790.0;;;;
2021/04/05 09:41:26;;;;;;;7.1;4.0;;;;;;;5.1;65.5;100810.0;;;;
2021/04/05 09:43:31;;;;;;;7.1;4.0;;;;;;;5.2;66.7;100810.0;;;;
2021/04/05 09:45:22;;;;;;;7.1;4.0;;;;;;;5.4;65.8;100820.0;;;;
2021/04/05 09:47:27;;;;;;;6.7;3.5;;;;;;;5.2;65.7;100820.0;;;;
2021/04/05 09:49:24;;;;;;;6.7;3.5;;;;;;;5.3;66.0;100820.0;;;;
2021/04/05 09:53:26;;;;;;;6.7;3.5;;;;;;;5.2;64.4;100840.0;;;;
2021/04/05 09:55:19;;;;;;;6.7;3.5;;;;;;;5.0;65.4;100850.0;;;;
2021/04/05 09:57:23;;;;;;;6.7;3.5;;;;;;;4.7;66.0;100870.0;;;;
2021/04/05 09:59:20;;;;;;;6.7;3.5;;;;;;;4.3;67.1;100880.0;;;;
2021/04/05 10:01:17;;;;;;;6.7;3.5;;;;;;;4.2;68.4;100870.0;;;;
2021/04/05 10:03:17;;;;;;;6.7;3.5;;;;;;;4.5;69.5;100870.0;;;;
2021/04/05 10:07:17;;;;;;;4.6;3.2;;;;;;;4.6;65.9;100870.0;;;;
2021/04/05 10:09:15;;;;;;;4.6;3.2;;;;;;;4.8;67.0;100870.0;;;;
2021/04/05 10:11:15;;;;;;;4.6;3.2;;;;;;;4.6;63.4;100880.0;;;;
2021/04/05 10:15:17;;;;;;;4.6;3.2;;;;;;;4.9;64.0;100880.0;;;;
2021/04/05 10:17:21;;;;;;;4.6;3.2;;;;;;;4.8;64.0;100870.0;;;;
2021/04/05 10:21:15;;;;;;;4.6;3.2;;;;;;;5.0;63.7;100880.0;;;;
2021/04/05 10:23:19;;;;;;;4.6;3.2;;;;;;;5.1;63.6;100880.0;;;;
2021/04/05 10:25:19;;;;;;;4.6;3.2;;;;;;;5.2;62.1;100890.0;;;;
2021/04/05 10:29:15;;;;;;;5.1;3.4;;;;;;;5.3;62.9;100880.0;;;;
2021/04/05 10:31:18;;;;;;;5.1;3.4;;;;;;;5.5;62.6;100890.0;;;;
2021/04/05 10:35:17;;;;;;;5.1;3.4;;;;;;;5.6;61.3;100890.0;;;;
2021/04/05 10:39:14;;;;;;;5.1;3.4;;;;;;;5.4;60.7;100880.0;;;;
2021/04/05 10:43:20;;;;;;;5.1;3.4;;;;;;;5.6;59.9;100890.0;;;;
2021/04/05 10:45:18;;;;;;;5.1;3.4;;;;;;;5.8;59.8;100890.0;;;;
2021/04/05 10:47:21;;;;;;;10.2;3.7;;;;;;;5.7;58.5;100890.0;;;;
2021/04/05 10:49:16;;;;;;;10.2;3.7;;;;;;;5.6;59.2;100890.0;;;;
2021/04/05 10:51:19;;;;;;;10.2;3.7;;;;;;;5.9;59.7;100890.0;;;;
2021/04/05 10:53:16;;;;;;;10.2;3.7;;;;;;;5.7;59.0;100910.0;;;;
2021/04/05 10:55:18;;;;;;;10.2;3.7;;;;;;;5.6;59.1;100900.0;;;;
2021/04/05 11:09:15;;;;;;;6.4;4.0;;;;;;;5.1;62.2;100940.0;;;;
2021/04/05 11:11:16;;;;;;;6.4;4.0;;;;;;;5.2;62.3;100940.0;;;;
2021/04/05 11:13:20;;;;;;;6.4;4.0;;;;;;;5.5;61.7;100940.0;;;;
2021/04/05 11:15:18;;;;;;;6.4;4.0;;;;;;;5.8;61.6;100950.0;;;;
2021/04/05 11:17:15;;;;;;;6.4;4.0;;;;;;;5.9;59.2;100950.0;;;;
2021/04/05 11:21:16;;;;;;;6.4;4.0;;;;;;;5.7;55.6;100950.0;;;;
2021/04/05 11:23:16;;;;;;;6.4;4.0;;;;;;;5.8;55.4;100950.0;;;;
2021/04/05 11:25:21;;;;;;;6.4;4.0;;;;;;;5.9;55.0;100950.0;;;;
2021/04/05 11:27:16;;;;;;;10.8;3.9;;;;;;;5.7;53.5;100940.0;;;;
2021/04/05 11:29:15;;;;;;;10.8;3.9;;;;;;;5.9;55.5;100940.0;;;;
2021/04/05 11:31:15;;;;;;;10.8;3.9;;;;;;;6.0;54.5;100950.0;;;;
2021/04/05 11:35:14;;;;;;;10.8;3.9;;;;;;;5.6;53.8;100940.0;;;;
2021/04/05 11:39:17;;;;;;;10.8;3.9;;;;;;;5.7;53.3;100940.0;;;;
2021/04/05 11:41:17;;;;;;;10.8;3.9;;;;;;;5.9;53.5;100950.0;;;;
2021/04/05 11:43:17;;;;;;;10.8;3.9;;;;;;;6.0;51.4;100940.0;;;;
2021/04/05 11:49:15;;;;;;;8.1;3.6;;;;;;;5.9;49.9;100910.0;;;;
2021/04/05 11:55:20;;;;;;;8.1;3.6;;;;;;;5.8;49.4;100950.0;;;;
2021/04/05 11:57:22;;;;;;;8.1;3.6;;;;;;;5.9;49.0;100950.0;;;;
2021/04/05 11:59:21;;;;;;;8.1;3.6;;;;;;;6.1;49.0;100950.0;;;;
2021/04/05 12:01:18;;;;;;;8.1;3.6;;;;;;;6.3;49.3;100960.0;;;;
2021/04/05 12:05:22;;;;;;;8.1;3.6;;;;;;;6.4;50.5;100950.0;;;;
2021/04/05 12:07:18;;;;;;;9.0;3.6;;;;;;;6.3;49.5;100960.0;;;;
2021/04/05 12:09:21;;;;;;;9.0;3.6;;;;;;;6.2;50.9;100960.0;;;;
2021/04/05 12:11:15;;;;;;;9.0;3.6;;;;;;;6.4;52.1;100960.0;;;;
2021/04/05 12:13:18;;;;;;;9.0;3.6;;;;;;;6.2;49.8;100960.0;;;;
2021/04/05 12:15:16;;;;;;;9.0;3.6;;;;;;;6.1;50.3;100960.0;;;;
2021/04/05 12:19:19;;;;;;;9.0;3.6;;;;;;;6.2;48.4;100960.0;;;;
2021/04/05 12:21:14;;;;;;;9.0;3.6;;;;;;;6.4;50.1;100960.0;;;;
2021/04/05 12:29:14;;;;;;;6.4;3.0;;;;;;;6.3;47.1;101000.0;;;;
2021/04/05 12:31:14;;;;;;;6.4;3.0;;;;;;;6.2;49.4;101010.0;;;;
2021/04/05 12:33:16;;;;;;;6.4;3.0;;;;;;;5.9;49.2;101030.0;;;;
2021/04/05 12:35:17;;;;;;;6.4;3.0;;;;;;;5.7;50.1;101030.0;;;;
2021/04/05 12:37:15;;;;;;;6.4;3.0;;;;;;;5.8;51.2;101030.0;;;;
2021/04/05 12:41:15;;;;;;;6.4;3.0;;;;;;;5.7;51.8;101040.0;;;;
2021/04/05 12:45:15;;;;;;;6.4;3.0;;;;;;;5.5;52.0;101040.0;;;;
2021/04/05 12:47:16;;;;;;;5.4;2.9;;;;;;;5.7;51.1;101040.0;;;;
2021/04/05 12:51:21;;;;;;;5.4;2.9;;;;;;;5.9;52.7;101030.0;;;;
2021/04/05 12:55:17;;;;;;;5.4;2.9;;;;;;;5.8;49.9;101020.0;;;;
2021/04/05 12:57:15;;;;;;;5.4;2.9;;;;;;;6.0;51.1;101030.0;;;;
2021/04/05 13:01:22;;;;;;;5.4;2.9;;;;;;;5.8;54.1;101070.0;;;;
2021/04/05 13:03:27;;;;;;;5.4;2.9;;;;;;;5.4;56.6;101090.0;;;;
2021/04/05 13:05:18;;;;;;;5.4;2.9;;;;;;;5.2;57.9;101080.0;;;;
2021/04/05 13:07:17;;;;;;;6.3;3.4;;;;;;;5.4;59.3;101080.0;;;;
2021/04/05 13:11:18;;;;;;;6.3;3.4;;;;;;;5.8;60.6;101070.0;;;;
2021/04/05 13:17:21;;;;;;;6.3;3.4;;;;;;;5.9;59.8;101060.0;;;;
2021/04/05 13:19:16;;;;;;;6.3;3.4;;;;;;;5.8;59.2;101050.0;;;;
2021/04/05 13:21:16;;;;;;;6.3;3.4;;;;;;;6.0;59.7;101050.0;;;;
2021/04/05 13:23:20;;;;;;;6.3;3.4;;;;;;;5.9;59.7;101050.0;;;;
2021/04/05 13:25:24;;;;;;;6.3;3.4;;;;;;;6.0;58.5;101050.0;;;;
2021/04/05 13:27:21;;;;;;;4.7;2.6;;;;;;;5.9;56.7;101040.0;;;;
2021/04/05 13:31:15;;;;;;;4.7;2.6;;;;;;;5.8;54.2;101030.0;;;;
2021/04/05 13:33:15;;;;;;;4.7;2.6;;;;;;;5.9;53.6;101030.0;;;;
2021/04/05 13:35:20;;;;;;;4.7;2.6;;;;;;;6.0;53.8;101040.0;;;;
2021/04/05 13:37:16;;;;;;;4.7;2.6;;;;;;;6.2;53.0;101030.0;;;;
2021/04/05 13:39:14;;;;;;;4.7;2.6;;;;;;;6.3;52.7;101020.0;;;;
2021/04/05 13:41:19;;;;;;;4.7;2.6;;;;;;;6.6;52.3;101030.0;;;;
2021/04/05 13:43:19;;;;;;;4.7;2.6;;;;;;;6.2;50.6;101020.0;;;;
2021/04/05 13:49:19;;;;;;;5.0;2.7;;;;;;;6.0;52.1;101070.0;;;;
2021/04/05 13:51:16;;;;;;;5.0;2.7;;;;;;;5.8;53.2;101060.0;;;;
2021/04/05 13:53:23;;;;;;;5.0;2.7;;;;;;;6.0;55.8;101070.0;;;;
2021/04/05 13:55:20;;;;;;;5.0;2.7;;;;;;;6.1;56.0;101070.0;;;;
2021/04/05 13:57:16;;;;;;;5.0;2.7;;;;;;;6.0;54.1;101060.0;;;;
2021/04/05 13:59:18;;;;;;;5.0;2.7;;;;;;;6.1;54.8;101050.0;;;;
2021/04/05 14:03:17;;;;;;;5.0;2.7;;;;;;;5.9;52.9;101060.0;;;;
2021/04/05 14:07:14;;;;;;;5.6;2.6;;;;;;;5.7;51.4;101050.0;;;;
2021/04/05 14:11:21;;;;;;;5.6;2.6;;;;;;;6.0;53.2;101050.0;;;;
2021/04/05 14:13:14;;;;;;;5.6;2.6;;;;;;;6.1;53.5;101050.0;;;;
2021/04/05 14:15:15;;;;;;;5.6;2.6;;;;;;;6.4;52.9;101040.0;;;;
2021/04/05 14:17:26;;;;;;;5.6;2.6;;;;;;;6.3;52.6;101070.0;;;;
2021/04/05 14:19:20;;;;;;;5.6;2.6;;;;;;;6.2;53.9;101070.0;;;;
2021/04/05 14:21:17;;;;;;;5.6;2.6;;;;;;;5.8;53.3;101080.0;;;;
2021/04/05 14:23:17;;;;;;;5.6;2.6;;;;;;;5.9;53.5;101090.0;;;;
2021/04/05 14:27:18;;;;;;;4.6;2.9;;;;;;;5.8;57.0;101110.0;;;;
2021/04/05 14:29:19;;;;;;;4.6;2.9;;;;;;;5.7;57.9;101110.0;;;;
2021/04/05 14:31:18;;;;;;;4.6;2.9;;;;;;;5.6;58.3;101100.0;;;;
2021/04/05 14:35:17;;;;;;;4.6;2.9;;;;;;;5.8;58.6;101100.0;;;;
2021/04/05 14:37:17;;;;;;;4.6;2.9;;;;;;;5.7;59.1;101100.0;;;;
2021/04/05 14:41:18;;;;;;;4.6;2.9;;;;;;;5.4;57.4;101090.0;;;;
2021/04/05 14:45:15;;;;;;;4.6;2.9;;;;;;;5.3;57.6;101090.0;;;;
2021/04/05 14:47:16;;;;;;;3.5;2.7;;;;;;;5.2;56.0;101110.0;;;;
2021/04/05 14:49:18;;;;;;;3.5;2.7;;;;;;;5.3;57.2;101100.0;;;;
2021/04/05 14:51:22;;;;;;;3.5;2.7;;;;;;;5.5;56.4;101100.0;;;;
2021/04/05 14:57:14;;;;;;;3.5;2.7;;;;;;;5.6;55.6;101100.0;;;;
2021/04/05 14:59:15;;;;;;;3.5;2.7;;;;;;;5.5;54.5;101090.0;;;;
2021/04/05 15:01:18;;;;;;;3.5;2.7;;;;;;;5.4;54.4;101100.0;;;;
2021/04/05 15:05:17;;;;;;;3.5;2.7;;;;;;;5.5;54.9;101120.0;;;;
2021/04/05 15:07:15;;;;;;;3.0;2.6;;;;;;;5.6;54.2;101120.0;;;;
2021/04/05 15:09:22;;;;;;;3.0;2.6;;;;;;;5.5;53.8;101100.0;;;;
2021/04/05 15:11:17;;;;;;;3.0;2.6;;;;;;;5.4;54.1;101120.0;;;;
2021/04/05 15:13:15;;;;;;;3.0;2.6;;;;;;;5.6;54.6;101110.0;;;;
2021/04/05 15:15:17;;;;;;;3.0;2.6;;;;;;;5.7;55.7;101100.0;;;;
2021/04/05 15:17:17;;;;;;;3.0;2.6;;;;;;;5.6;55.2;101100.0;;;;
2021/04/05 15:19:21;;;;;;;3.0;2.6;;;;;;;5.7;54.9;101110.0;;;;
2021/04/05 15:21:14;;;;;;;3.0;2.6;;;;;;;5.9;54.0;101110.0;;;;
2021/04/05 15:29:15;;;;;;;5.1;3.0;;;;;;;5.8;53.6;101100.0;;;;
2021/04/05 15:31:17;;;;;;;5.1;3.0;;;;;;;5.9;53.4;101110.0;;;;
2021/04/05 15:33:24;;;;;;;5.1;3.0;;;;;;;6.0;54.3;101110.0;;;;
2021/04/05 15:37:15;;;;;;;5.1;3.0;;;;;;;6.1;53.5;101110.0;;;;
2021/04/05 15:39:15;;;;;;;5.1;3.0;;;;;;;6.0;54.4;101120.0;;;;
2021/04/05 15:41:15;;;;;;;5.1;3.0;;;;;;;6.1;54.4;101120.0;;;;
2021/04/05 15:43:18;;;;;;;5.1;3.0;;;;;;;6.0;54.9;101120.0;;;;
2021/04/05 15:47:22;;;;;;;5.3;3.0;;;;;;;5.7;55.8;101120.0;;;;
2021/04/05 15:49:22;;;;;;;5.3;3.0;;;;;;;5.8;56.2;101130.0;;;;
2021/04/05 15:51:19;;;;;;;5.3;3.0;;;;;;;5.6;56.4;101130.0;;;;
2021/04/05 15:53:18;;;;;;;5.3;3.0;;;;;;;5.5;55.7;101150.0;;;;
2021/04/05 15:57:25;;;;;;;5.3;3.0;;;;;;;5.1;57.0;101140.0;;;;
2021/04/05 15:59:19;;;;;;;5.3;3.0;;;;;;;5.0;57.3;101140.0;;;;
2021/04/05 16:01:19;;;;;;;5.3;3.0;;;;;;;4.9;58.1;101130.0;;;;
2021/04/05 16:03:18;;;;;;;5.3;3.0;;;;;;;5.0;57.8;101140.0;;;;
2021/04/05 16:05:17;;;;;;;5.4;3.3;;;;;;;5.1;56.6;101130.0;;;;
2021/04/05 16:07:21;;;;;;;5.4;3.3;;;;;;;4.9;55.0;101140.0;;;;
2021/04/05 16:09:18;;;;;;;5.4;3.3;;;;;;;4.6;56.2;101140.0;;;;
2021/04/05 16:11:22;;;;;;;5.4;3.3;;;;;;;4.8;56.4;101140.0;;;;
2021/04/05 16:13:18;;;;;;;5.4;3.3;;;;;;;5.0;56.1;101140.0;;;;
2021/04/05 16:15:19;;;;;;;5.4;3.3;;;;;;;5.2;55.8;101140.0;;;;
2021/04/05 16:17:23;;;;;;;5.4;3.3;;;;;;;5.4;55.7;101150.0;;;;
2021/04/05 16:19:20;;;;;;;5.4;3.3;;;;;;;5.5;55.6;101150.0;;;;
2021/04/05 16:23:20;;;;;;;5.4;3.3;;;;;;;5.3;56.6;101160.0;;;;
2021/04/05 16:25:17;;;;;;;6.9;3.7;;;;;;;5.0;57.6;101180.0;;;;
2021/04/05 16:27:15;;;;;;;6.9;3.7;;;;;;;4.9;57.6;101170.0;;;;
2021/04/05 16:29:21;;;;;;;6.9;3.7;;;;;;;5.1;58.1;101170.0;;;;
2021/04/05 16:31:21;;;;;;;6.9;3.7;;;;;;;5.2;58.8;101170.0;;;;
2021/04/05 16:33:18;;;;;;;6.9;3.7;;;;;;;5.4;58.0;101170.0;;;;
2021/04/05 16:35:15;;;;;;;6.9;3.7;;;;;;;5.3;56.6;101180.0;;;;
2021/04/05 16:37:23;;;;;;;6.9;3.7;;;;;;;5.4;56.0;101170.0;;;;
2021/04/05 16:39:20;;;;;;;6.9;3.7;;;;;;;5.1;54.8;101170.0;;;;
2021/04/05 16:43:23;;;;;;;6.9;3.7;;;;;;;5.3;55.8;101180.0;;;;
2021/04/05 16:45:16;;;;;;;4.4;3.2;;;;;;;5.4;54.5;101190.0;;;;
2021/04/05 16:51:17;;;;;;;4.4;3.2;;;;;;;5.3;55.5;101200.0;;;;
2021/04/05 16:53:18;;;;;;;4.4;3.2;;;;;;;5.1;56.5;101190.0;;;;
2021/04/05 16:55:17;;;;;;;4.4;3.2;;;;;;;5.3;55.7;101190.0;;;;
2021/04/05 16:57:20;;;;;;;4.4;3.2;;;;;;;5.5;56.4;101190.0;;;;
2021/04/05 16:59:15;;;;;;;4.4;3.2;;;;;;;5.4;56.4;101190.0;;;;
2021/04/05 17:01:17;;;;;;;4.4;3.2;;;;;;;5.5;56.4;101180.0;;;;
2021/04/05 17:05:16;;;;;;;3.2;2.9;;;;;;;5.8;55.8;101190.0;;;;
2021/04/05 17:07:19;;;;;;;3.2;2.9;;;;;;;6.1;56.0;101190.0;;;;
2021/04/05 17:09:17;;;;;;;3.2;2.9;;;;;;;6.2;55.2;101200.0;;;;
2021/04/05 17:11:17;;;;;;;3.2;2.9;;;;;;;5.9;54.3;101190.0;;;;
2021/04/05 17:13:20;;;;;;;3.2;2.9;;;;;;;6.0;54.6;101200.0;;;;
2021/04/05 17:15:19;;;;;;;3.2;2.9;;;;;;;5.7;53.2;101210.0;;;;
2021/04/05 17:17:16;;;;;;;3.2;2.9;;;;;;;5.8;53.9;101190.0;;;;
2021/04/05 17:19:25;;;;;;;3.2;2.9;;;;;;;5.6;53.5;101200.0;;;;
2021/04/05 17:21:15;;;;;;;3.2;2.9;;;;;;;5.3;53.4;101200.0;;;;
2021/04/05 17:23:17;;;;;;;3.2;2.9;;;;;;;5.2;53.5;101200.0;;;;
2021/04/05 17:25:20;;;;;;;2.6;2.3;;;;;;;4.8;53.9;101200.0;;;;
2021/04/05 17:27:18;;;;;;;2.6;2.3;;;;;;;4.9;53.9;101200.0;;;;
2021/04/05 17:29:21;;;;;;;2.6;2.3;;;;;;;4.7;54.3;101210.0;;;;
2021/04/05 17:31:15;;;;;;;2.6;2.3;;;;;;;4.2;55.1;101210.0;;;;
2021/04/05 17:33:19;;;;;;;2.6;2.3;;;;;;;4.4;55.2;101210.0;;;;
2021/04/05 17:35:21;;;;;;;2.6;2.3;;;;;;;4.2;55.0;101220.0;;;;
2021/04/05 17:37:20;;;;;;;2.6;2.3;;;;;;;4.1;56.0;101210.0;;;;
2021/04/05 17:39:19;;;;;;;2.6;2.3;;;;;;;4.0;56.5;101210.0;;;;
2021/04/05 17:41:19;;;;;;;2.6;2.3;;;;;;;3.8;56.2;101210.0;;;;
2021/04/05 17:47:34;;;;;;;5.1;3.6;;;;;;;3.7;57.4;101200.0;;;;
2021/04/05 17:49:29;;;;;;;5.1;3.6;;;;;;;3.8;57.7;101200.0;;;;
2021/04/05 17:51:34;;;;;;;5.1;3.6;;;;;;;3.7;57.5;101190.0;;;;
2021/04/05 17:53:20;;;;;;;5.1;3.6;;;;;;;3.8;57.5;101200.0;;;;
2021/04/05 17:55:17;;;;;;;5.1;3.6;;;;;;;3.7;57.6;101200.0;;;;
2021/04/05 17:57:22;;;;;;;5.1;3.6;;;;;;;3.9;57.5;101200.0;;;;
2021/04/05 17:59:25;;;;;;;5.1;3.6;;;;;;;3.7;58.0;101190.0;;;;
2021/04/05 18:03:20;;;;;;;5.1;3.6;;;;;;;3.5;58.3;101210.0;;;;
2021/04/05 18:09:18;;;;;;;8.5;4.2;;;;;;;3.4;59.4;101220.0;;;;
2021/04/05 18:11:24;;;;;;;8.5;4.2;;;;;;;3.3;60.2;101230.0;;;;
2021/04/05 18:13:31;;;;;;;8.5;4.2;;;;;;;3.4;60.6;101220.0;;;;
2021/04/05 18:15:21;;;;;;;8.5;4.2;;;;;;;3.2;61.1;101210.0;;;;
2021/04/05 18:21:34;;;;;;;8.5;4.2;;;;;;;3.1;61.2;101200.0;;;;
2021/04/05 18:27:27;;;;;;;7.4;4.3;;;;;;;3.2;61.0;101200.0;;;;
2021/04/05 18:35:18;;;;;;;7.4;4.3;;;;;;;3.1;60.4;101190.0;;;;
2021/04/05 18:43:18;;;;;;;7.4;4.3;;;;;;;3.0;61.1;101200.0;;;;
2021/04/05 18:47:27;;;;;;;13.1;5.2;;;;;;;2.9;61.2;101200.0;;;;